Terminal Aerodrome Forecast
Issued by NWS

Home | Current Version | Previous Version | Text Only | Print | Product List | Glossary On
Versions: 1 2 3 4 5 6 7 8 9 10 11 12 13
000
FTUS45 KRIW 222320
TAFCOD
TAF
KCOD 222320Z 2300/2324 26015G25KT P6SM SCT100 BKN200 WS020/26050KT
     FM230200 30011KT P6SM SCT100 BKN250
     FM231400 29008KT P6SM SCT100
      AMD LTD TO CLD VIS AND WIND=

USA.gov is the U.S. government's official web portal to all federal, state and local government web resources and services.